createdAt,value
2018-11-28T00:01:22.032Z,26.35
2018-11-28T00:05:30.391Z,25.10
2018-11-28T00:09:38.670Z,33.27
2018-11-28T00:13:46.991Z,26.57
2018-11-28T00:17:55.318Z,29.43
2018-11-28T00:22:03.691Z,34.17
2018-11-28T00:26:12.032Z,32.17
2018-11-28T00:30:22.040Z,31.43
2018-11-28T00:34:30.348Z,30.80
2018-11-28T00:38:38.709Z,25.43
2018-11-28T00:42:46.965Z,31.40
2018-11-28T00:46:55.407Z,29.10
2018-11-28T00:51:03.852Z,22.43
2018-11-28T00:55:15.081Z,27.93
2018-11-28T00:59:23.454Z,32.23
2018-11-28T01:03:31.761Z,31.43
2018-11-28T01:07:40.448Z,29.97
2018-11-28T01:11:48.735Z,28.27
2018-11-28T01:15:57.085Z,24.80
2018-11-28T01:20:08.760Z,29.30
2018-11-28T01:24:17.071Z,34.00
2018-11-28T01:28:25.412Z,24.53
2018-11-28T01:32:33.721Z,33.00
2018-11-28T01:36:42.023Z,27.43
2018-11-28T01:40:50.486Z,32.83
2018-11-28T01:44:58.781Z,31.37
2018-11-28T01:49:07.166Z,29.87
2018-11-28T01:53:15.440Z,35.40
2018-11-28T01:57:23.769Z,40.60
2018-11-28T02:01:32.034Z,39.10
2018-11-28T02:05:40.342Z,31.67
2018-11-28T02:09:48.667Z,35.60
2018-11-28T02:13:56.972Z,32.93
2018-11-28T02:18:05.295Z,35.60
2018-11-28T02:22:13.631Z,29.73
2018-11-28T02:26:21.914Z,37.07
2018-11-28T02:30:30.239Z,30.20
2018-11-28T02:34:38.577Z,37.13
2018-11-28T02:38:46.841Z,36.90
2018-11-28T02:42:55.148Z,36.73
2018-11-28T02:47:03.516Z,28.70
2018-11-28T02:51:11.877Z,39.03
2018-11-28T02:55:20.236Z,35.87
2018-11-28T02:59:28.672Z,32.10
2018-11-28T03:03:36.940Z,36.77
2018-11-28T03:07:45.211Z,34.03
2018-11-28T03:11:53.824Z,36.00
2018-11-28T03:16:05.592Z,35.30
2018-11-28T03:20:13.865Z,31.40
2018-11-28T03:24:22.271Z,39.17
2018-11-28T03:28:30.579Z,37.10
2018-11-28T03:32:38.619Z,37.00
2018-11-28T03:36:46.917Z,31.60
2018-11-28T03:40:55.293Z,34.53
2018-11-28T03:45:04.014Z,29.33
2018-11-28T03:49:12.288Z,29.70
2018-11-28T03:53:20.575Z,32.87
2018-11-28T03:57:28.845Z,34.30
2018-11-28T04:01:37.166Z,26.00
2018-11-28T04:05:45.414Z,37.47
2018-11-28T04:09:53.727Z,37.73
2018-11-28T04:14:02.013Z,31.68
2018-11-28T04:18:10.334Z,37.07
2018-11-28T04:22:18.605Z,30.77
2018-11-28T04:26:26.935Z,31.40
2018-11-28T04:30:35.230Z,48.13
2018-11-28T04:34:43.497Z,31.47
2018-11-28T04:38:51.790Z,39.30
2018-11-28T04:43:00.058Z,37.97
2018-11-28T04:47:08.319Z,34.63
2018-11-28T04:51:16.658Z,34.47
2018-11-28T04:55:24.915Z,35.87
2018-11-28T04:59:33.239Z,32.93
2018-11-28T05:03:41.524Z,36.97
2018-11-28T05:07:50.535Z,34.60
2018-11-28T05:11:58.913Z,39.53
2018-11-28T05:16:07.203Z,32.03
2018-11-28T05:20:20.540Z,35.10
2018-11-28T05:24:28.949Z,28.87
2018-11-28T05:28:37.258Z,30.23
2018-11-28T05:32:45.575Z,33.60
2018-11-28T05:36:53.859Z,28.63
2018-11-28T05:41:02.146Z,30.93
2018-11-28T05:45:11.036Z,41.10
2018-11-28T05:49:19.069Z,34.40
2018-11-28T05:53:27.095Z,38.17
2018-11-28T05:57:35.347Z,36.23
2018-11-28T06:01:43.678Z,34.60
2018-11-28T06:05:51.934Z,39.70
2018-11-28T06:10:00.222Z,32.43
2018-11-28T06:14:08.588Z,30.43
2018-11-28T06:18:16.891Z,34.00
2018-11-28T06:22:25.172Z,34.10
2018-11-28T06:26:33.458Z,37.87
2018-11-28T06:30:41.731Z,34.80
2018-11-28T06:34:50.053Z,40.63
2018-11-28T06:38:58.339Z,37.60
2018-11-28T06:43:06.599Z,36.20
2018-11-28T06:47:14.908Z,33.80
2018-11-28T06:51:23.230Z,40.25
2018-11-28T06:55:31.542Z,36.67
2018-11-28T06:59:39.603Z,40.27
2018-11-28T07:03:47.902Z,39.33
2018-11-28T07:07:56.214Z,46.10
2018-11-28T07:12:04.556Z,37.10
2018-11-28T07:16:17.120Z,35.87
2018-11-28T07:20:25.565Z,34.03
2018-11-28T07:24:33.938Z,38.73
2018-11-28T07:28:42.257Z,40.60
2018-11-28T07:32:52.052Z,36.17
2018-11-28T07:37:00.335Z,38.50
2018-11-28T07:41:08.660Z,33.40
2018-11-28T07:45:16.934Z,38.27
2018-11-28T07:49:25.277Z,34.27
2018-11-28T07:53:33.558Z,33.77
2018-11-28T07:57:41.897Z,31.87
2018-11-28T08:01:50.185Z,34.80
2018-11-28T08:05:58.450Z,37.37
2018-11-28T08:10:09.213Z,39.57
2018-11-28T08:14:17.484Z,39.20
2018-11-28T08:18:25.728Z,32.40
2018-11-28T08:22:34.081Z,37.60
2018-11-28T08:26:42.414Z,39.30
2018-11-28T08:30:50.814Z,35.37
2018-11-28T08:34:59.146Z,34.73
2018-11-28T08:39:08.150Z,31.07
2018-11-28T08:43:16.479Z,40.17
2018-11-28T08:47:24.885Z,35.97
2018-11-28T08:51:33.187Z,36.53
2018-11-28T08:55:41.504Z,38.83
2018-11-28T08:59:49.829Z,33.80
2018-11-28T09:03:58.106Z,37.27
2018-11-28T09:08:06.340Z,31.12
2018-11-28T09:12:14.651Z,33.97
2018-11-28T09:16:22.894Z,38.20
2018-11-28T09:20:31.169Z,32.47
2018-11-28T09:24:39.476Z,35.17
2018-11-28T09:28:48.215Z,34.13
2018-11-28T09:32:56.522Z,44.43
2018-11-28T09:37:04.939Z,34.83
2018-11-28T09:41:13.233Z,37.73
2018-11-28T09:45:21.652Z,34.53
2018-11-28T09:49:29.947Z,43.77
2018-11-28T09:53:38.214Z,35.67
2018-11-28T09:57:46.532Z,34.17
2018-11-28T10:01:54.763Z,25.07
2018-11-28T10:06:04.234Z,31.87
2018-11-28T10:10:13.318Z,34.33
2018-11-28T10:14:23.644Z,32.53
2018-11-28T10:18:31.979Z,34.23
2018-11-28T10:22:40.700Z,40.53
2018-11-28T10:26:48.945Z,34.07
2018-11-28T10:30:57.208Z,32.43
2018-11-28T10:35:05.668Z,33.83
2018-11-28T10:39:13.951Z,34.90
2018-11-28T10:43:22.210Z,34.37
2018-11-28T10:47:30.496Z,33.60
2018-11-28T10:51:38.836Z,29.67
2018-11-28T10:55:47.080Z,31.97
2018-11-28T10:59:55.419Z,36.33
2018-11-28T11:04:23.971Z,29.27
2018-11-28T11:08:37.709Z,31.50
2018-11-28T11:12:51.331Z,34.00
2018-11-28T11:16:59.638Z,35.88
2018-11-28T11:21:07.896Z,33.50
2018-11-28T11:25:16.287Z,33.70
2018-11-28T11:29:24.656Z,28.57
2018-11-28T11:33:32.967Z,33.07
2018-11-28T11:37:41.238Z,31.93
2018-11-28T11:41:49.489Z,31.83
2018-11-28T11:45:57.776Z,34.10
2018-11-28T11:50:14.392Z,32.57
2018-11-28T11:54:22.680Z,25.53
2018-11-28T11:58:30.928Z,29.97
2018-11-28T12:02:39.405Z,32.20
2018-11-28T12:06:47.772Z,30.70
2018-11-28T12:10:56.079Z,25.60
2018-11-28T12:15:05.180Z,30.17
2018-11-28T12:19:13.529Z,32.13
2018-11-28T12:23:21.770Z,30.50
2018-11-28T12:27:30.043Z,25.30
2018-11-28T12:31:38.342Z,27.70
2018-11-28T12:35:46.620Z,24.17
2018-11-28T12:39:55.043Z,28.70
2018-11-28T12:44:03.323Z,26.20
2018-11-28T12:48:11.591Z,28.63
2018-11-28T12:52:19.930Z,25.73
2018-11-28T12:56:28.186Z,28.60
2018-11-28T13:00:36.502Z,23.23
2018-11-28T13:04:44.795Z,25.70
2018-11-28T13:08:53.146Z,26.93
2018-11-28T13:13:01.545Z,24.73
2018-11-28T13:17:09.831Z,22.33
2018-11-28T13:21:18.114Z,28.43
2018-11-28T13:25:27.305Z,26.23
2018-11-28T13:29:35.593Z,28.80
2018-11-28T13:33:43.934Z,19.40
2018-11-28T13:37:53.517Z,28.60
2018-11-28T13:42:01.845Z,20.77
2018-11-28T13:46:09.910Z,26.53
2018-11-28T13:50:18.190Z,28.60
2018-11-28T13:54:26.546Z,25.20
2018-11-28T13:58:34.914Z,25.40
2018-11-28T14:02:43.181Z,21.00
2018-11-28T14:06:51.455Z,27.83
2018-11-28T14:10:59.737Z,21.67
2018-11-28T14:15:16.741Z,24.43
2018-11-28T14:19:25.001Z,23.60
2018-11-28T14:23:33.255Z,22.10
2018-11-28T14:27:41.908Z,25.53
2018-11-28T14:31:50.146Z,22.50
2018-11-28T14:35:58.434Z,21.27
2018-11-28T14:40:12.466Z,23.90
2018-11-28T14:44:20.740Z,21.17
2018-11-28T14:48:29.036Z,18.83
2018-11-28T14:52:37.251Z,23.47
2018-11-28T14:56:45.526Z,23.77
2018-11-28T15:00:53.832Z,17.40
2018-11-28T15:05:02.137Z,23.90
2018-11-28T15:09:16.415Z,20.53
2018-11-28T15:13:24.683Z,24.87
2018-11-28T15:17:32.987Z,17.57
2018-11-28T15:21:41.234Z,21.70
2018-11-28T15:25:49.503Z,19.70
2018-11-28T15:29:57.849Z,22.60
2018-11-28T15:34:06.696Z,24.33
2018-11-28T15:38:14.976Z,24.33
2018-11-28T15:42:23.271Z,26.70
2018-11-28T15:46:32.576Z,22.10
2018-11-28T15:50:40.859Z,25.00
2018-11-28T15:54:49.155Z,22.73
2018-11-28T15:58:57.466Z,20.33
2018-11-28T16:03:06.334Z,19.60
2018-11-28T16:07:14.617Z,19.50
2018-11-28T16:11:23.891Z,23.23
2018-11-28T16:15:34.836Z,21.70
2018-11-28T16:19:43.216Z,23.30
2018-11-28T16:23:52.658Z,25.53
2018-11-28T16:27:59.797Z,22.17
2018-11-28T16:32:08.113Z,23.17
2018-11-28T16:36:16.420Z,25.40
2018-11-28T16:40:24.687Z,20.93
2018-11-28T16:44:34.175Z,22.53
2018-11-28T16:48:42.476Z,26.70
2018-11-28T16:52:50.769Z,24.47
2018-11-28T16:56:59.444Z,28.40
2018-11-28T17:01:07.360Z,27.90
2018-11-28T17:05:17.520Z,26.27
2018-11-28T17:09:25.948Z,27.62
2018-11-28T17:13:34.195Z,27.70
2018-11-28T17:17:48.090Z,21.43
2018-11-28T17:21:56.480Z,29.37
2018-11-28T17:26:04.764Z,25.20
2018-11-28T17:30:18.769Z,26.87
2018-11-28T17:34:23.569Z,26.10
2018-11-28T17:38:31.827Z,28.77
2018-11-28T17:42:39.901Z,29.07
2018-11-28T17:46:48.188Z,26.80
2018-11-28T17:50:56.639Z,30.43
2018-11-28T17:55:06.709Z,24.60
2018-11-28T17:59:15.056Z,26.70
2018-11-28T18:03:24.471Z,25.67
2018-11-28T18:07:32.740Z,26.67
2018-11-28T18:11:41.046Z,30.37
2018-11-28T18:15:50.772Z,28.07
2018-11-28T18:19:59.065Z,25.83
2018-11-28T18:24:07.549Z,27.90
2018-11-28T18:28:15.838Z,22.67
2018-11-28T18:32:24.231Z,30.10
2018-11-28T18:36:32.567Z,23.03
2018-11-28T18:40:40.837Z,23.57
2018-11-28T18:44:49.150Z,25.47
2018-11-28T18:48:57.463Z,22.70
2018-11-28T18:53:06.527Z,24.17
2018-11-28T18:57:14.847Z,25.40
2018-11-28T19:01:23.151Z,24.93
2018-11-28T19:05:31.437Z,30.10
2018-11-28T19:09:45.121Z,27.60
2018-11-28T19:13:53.400Z,22.00
2018-11-28T19:18:01.664Z,26.77
2018-11-28T19:22:09.985Z,23.10
2018-11-28T19:26:18.273Z,28.43
2018-11-28T19:30:30.865Z,23.27
2018-11-28T19:34:35.504Z,23.13
2018-11-28T19:38:43.828Z,24.77
2018-11-28T19:42:52.113Z,20.97
2018-11-28T19:47:00.421Z,22.70
2018-11-28T19:51:08.678Z,19.47
2018-11-28T19:55:16.955Z,21.15
2018-11-28T19:59:25.196Z,21.03
2018-11-28T20:03:33.430Z,20.37
2018-11-28T20:07:43.260Z,20.63
2018-11-28T20:11:51.503Z,18.20
2018-11-28T20:15:59.763Z,22.93
2018-11-28T20:20:13.019Z,19.75
2018-11-28T20:24:21.263Z,22.30
2018-11-28T20:28:29.567Z,20.13
2018-11-28T20:32:37.816Z,15.73
2018-11-28T20:36:46.118Z,16.67
2018-11-28T20:40:54.425Z,13.97
2018-11-28T20:45:02.775Z,20.13
2018-11-28T20:49:11.071Z,14.07
2018-11-28T20:53:20.253Z,17.70
2018-11-28T20:57:28.531Z,16.13
2018-11-28T21:01:37.014Z,16.30
2018-11-28T21:05:45.258Z,17.10
2018-11-28T21:09:53.827Z,19.67
2018-11-28T21:14:02.310Z,16.73
2018-11-28T21:18:10.591Z,16.50
2018-11-28T21:22:18.893Z,16.53
2018-11-28T21:26:27.160Z,17.07
2018-11-28T21:30:35.508Z,23.20
2018-11-28T21:34:43.820Z,20.27
2018-11-28T21:38:52.077Z,21.07
2018-11-28T21:43:00.419Z,16.20
2018-11-28T21:47:08.627Z,15.80
2018-11-28T21:51:16.880Z,17.03
2018-11-28T21:55:25.326Z,19.70
2018-11-28T21:59:33.598Z,17.20
2018-11-28T22:03:41.835Z,16.73
2018-11-28T22:07:50.113Z,17.60
2018-11-28T22:11:58.349Z,15.80
2018-11-28T22:16:06.706Z,14.37
2018-11-28T22:20:15.283Z,15.00
2018-11-28T22:24:23.549Z,16.63
2018-11-28T22:28:31.878Z,15.77
2018-11-28T22:32:40.447Z,12.27
2018-11-28T22:36:48.659Z,14.63
2018-11-28T22:40:56.995Z,17.67
2018-11-28T22:45:08.427Z,19.03
2018-11-28T22:49:16.750Z,14.73
2018-11-28T22:53:25.059Z,18.00
2018-11-28T22:57:33.367Z,13.60
2018-11-28T23:02:53.173Z,16.17
2018-11-28T23:07:01.495Z,15.00
2018-11-28T23:11:09.797Z,12.50
2018-11-28T23:15:18.104Z,12.75
2018-11-28T23:19:27.465Z,11.70
2018-11-28T23:23:35.850Z,11.37
2018-11-28T23:27:44.192Z,14.77
2018-11-28T23:31:52.488Z,12.20
2018-11-28T23:36:00.791Z,12.90
2018-11-28T23:40:12.238Z,13.90
2018-11-28T23:44:20.649Z,12.57
2018-11-28T23:48:29.010Z,13.87
2018-11-28T23:52:37.372Z,11.50
2018-11-28T23:56:45.639Z,14.40
